sensor_id;sensor_type;location;lat;lon;timestamp;pressure;altitude;pressure_sealevel;temperature;humidity
6020;BME280;3038;51.122;6.840;2023-06-22T00:01:04;63325.50;;;-144.63;100.00
6020;BME280;3038;51.122;6.840;2023-06-22T00:03:30;63325.50;;;-144.63;100.00
6020;BME280;3038;51.122;6.840;2023-06-22T00:05:55;63325.50;;;-144.63;100.00
6020;BME280;3038;51.122;6.840;2023-06-22T00:08:21;63325.50;;;-144.63;100.00
6020;BME280;3038;51.122;6.840;2023-06-22T00:10:47;63325.50;;;-144.63;100.00
6020;BME280;3038;51.122;6.840;2023-06-22T00:13:13;63325.50;;;-144.63;100.00
6020;BME280;3038;51.122;6.840;2023-06-22T00:15:40;63325.50;;;-144.63;100.00
6020;BME280;3038;51.122;6.840;2023-06-22T00:18:07;63325.50;;;-144.63;100.00
6020;BME280;3038;51.122;6.840;2023-06-22T00:20:32;63325.50;;;-144.63;100.00
6020;BME280;3038;51.122;6.840;2023-06-22T00:23:01;63325.50;;;-144.63;100.00
6020;BME280;3038;51.122;6.840;2023-06-22T00:25:27;63325.50;;;-144.63;100.00
6020;BME280;3038;51.122;6.840;2023-06-22T00:27:52;63325.50;;;-144.63;100.00
6020;BME280;3038;51.122;6.840;2023-06-22T00:30:20;63325.50;;;-144.63;100.00
6020;BME280;3038;51.122;6.840;2023-06-22T00:32:46;63325.50;;;-144.63;100.00
6020;BME280;3038;51.122;6.840;2023-06-22T00:35:12;63325.50;;;-144.63;100.00
6020;BME280;3038;51.122;6.840;2023-06-22T00:37:38;63325.50;;;-144.63;100.00
6020;BME280;3038;51.122;6.840;2023-06-22T00:40:10;63325.50;;;-144.63;100.00
6020;BME280;3038;51.122;6.840;2023-06-22T00:42:40;63325.50;;;-144.63;100.00
6020;BME280;3038;51.122;6.840;2023-06-22T00:45:07;63325.50;;;-144.63;100.00
6020;BME280;3038;51.122;6.840;2023-06-22T00:47:34;63325.50;;;-144.63;100.00
6020;BME280;3038;51.122;6.840;2023-06-22T00:50:01;63325.50;;;-144.63;100.00
6020;BME280;3038;51.122;6.840;2023-06-22T00:52:28;63325.50;;;-144.63;100.00
6020;BME280;3038;51.122;6.840;2023-06-22T00:54:56;63325.50;;;-144.63;100.00
6020;BME280;3038;51.122;6.840;2023-06-22T00:57:22;63325.50;;;-144.63;100.00
6020;BME280;3038;51.122;6.840;2023-06-22T00:59:53;63325.50;;;-144.63;100.00
6020;BME280;3038;51.122;6.840;2023-06-22T01:02:18;63325.50;;;-144.63;100.00
6020;BME280;3038;51.122;6.840;2023-06-22T01:04:44;63325.50;;;-144.63;100.00
6020;BME280;3038;51.122;6.840;2023-06-22T01:07:31;63325.50;;;-144.63;100.00
6020;BME280;3038;51.122;6.840;2023-06-22T01:10:12;63325.50;;;-144.63;100.00
6020;BME280;3038;51.122;6.840;2023-06-22T01:12:43;63325.50;;;-144.63;100.00
6020;BME280;3038;51.122;6.840;2023-06-22T01:15:49;63325.50;;;-144.63;100.00
6020;BME280;3038;51.122;6.840;2023-06-22T01:18:14;63325.50;;;-144.63;100.00
6020;BME280;3038;51.122;6.840;2023-06-22T01:20:42;63325.50;;;-144.63;100.00
6020;BME280;3038;51.122;6.840;2023-06-22T01:23:39;63325.50;;;-144.63;100.00
6020;BME280;3038;51.122;6.840;2023-06-22T01:28:57;63325.50;;;-144.63;100.00
6020;BME280;3038;51.122;6.840;2023-06-22T01:31:25;63325.50;;;-144.63;100.00
6020;BME280;3038;51.122;6.840;2023-06-22T01:34:03;63325.50;;;-144.63;100.00
6020;BME280;3038;51.122;6.840;2023-06-22T01:36:31;63325.50;;;-144.63;100.00
6020;BME280;3038;51.122;6.840;2023-06-22T01:38:59;63325.50;;;-144.63;100.00
6020;BME280;3038;51.122;6.840;2023-06-22T01:41:26;63325.50;;;-144.63;100.00
6020;BME280;3038;51.122;6.840;2023-06-22T01:43:52;63325.50;;;-144.63;100.00
6020;BME280;3038;51.122;6.840;2023-06-22T01:46:19;63325.50;;;-144.63;100.00
6020;BME280;3038;51.122;6.840;2023-06-22T01:48:46;63325.50;;;-144.63;100.00
6020;BME280;3038;51.122;6.840;2023-06-22T01:51:13;63325.50;;;-144.63;100.00
6020;BME280;3038;51.122;6.840;2023-06-22T01:53:38;63325.50;;;-144.63;100.00
6020;BME280;3038;51.122;6.840;2023-06-22T01:56:04;63325.50;;;-144.63;100.00
6020;BME280;3038;51.122;6.840;2023-06-22T01:58:30;63325.50;;;-144.63;100.00
6020;BME280;3038;51.122;6.840;2023-06-22T02:03:31;63325.50;;;-144.63;100.00
6020;BME280;3038;51.122;6.840;2023-06-22T02:06:05;63325.50;;;-144.63;100.00
6020;BME280;3038;51.122;6.840;2023-06-22T02:08:39;63325.50;;;-144.63;100.00
6020;BME280;3038;51.122;6.840;2023-06-22T02:11:06;63325.50;;;-144.63;100.00
6020;BME280;3038;51.122;6.840;2023-06-22T02:13:32;63325.50;;;-144.63;100.00
6020;BME280;3038;51.122;6.840;2023-06-22T02:15:59;63325.50;;;-144.63;100.00
6020;BME280;3038;51.122;6.840;2023-06-22T02:18:25;63325.50;;;-144.63;100.00
6020;BME280;3038;51.122;6.840;2023-06-22T02:20:50;63325.50;;;-144.63;100.00
6020;BME280;3038;51.122;6.840;2023-06-22T02:23:16;63325.50;;;-144.63;100.00
6020;BME280;3038;51.122;6.840;2023-06-22T02:25:41;63325.50;;;-144.63;100.00
6020;BME280;3038;51.122;6.840;2023-06-22T02:28:09;63325.50;;;-144.63;100.00
6020;BME280;3038;51.122;6.840;2023-06-22T02:30:34;63325.50;;;-144.63;100.00
6020;BME280;3038;51.122;6.840;2023-06-22T02:33:00;63325.50;;;-144.63;100.00
6020;BME280;3038;51.122;6.840;2023-06-22T02:35:29;63325.50;;;-144.63;100.00
6020;BME280;3038;51.122;6.840;2023-06-22T02:38:01;63325.50;;;-144.63;100.00
6020;BME280;3038;51.122;6.840;2023-06-22T02:40:27;63325.50;;;-144.63;100.00
6020;BME280;3038;51.122;6.840;2023-06-22T02:42:53;63325.50;;;-144.63;100.00
6020;BME280;3038;51.122;6.840;2023-06-22T02:45:18;63325.50;;;-144.63;100.00
6020;BME280;3038;51.122;6.840;2023-06-22T02:47:44;63325.50;;;-144.63;100.00
6020;BME280;3038;51.122;6.840;2023-06-22T02:50:09;63325.50;;;-144.63;100.00
6020;BME280;3038;51.122;6.840;2023-06-22T02:52:35;63325.50;;;-144.63;100.00
6020;BME280;3038;51.122;6.840;2023-06-22T02:55:00;63325.50;;;-144.63;100.00
6020;BME280;3038;51.122;6.840;2023-06-22T02:57:26;63325.50;;;-144.63;100.00
6020;BME280;3038;51.122;6.840;2023-06-22T02:59:51;63325.50;;;-144.63;100.00
6020;BME280;3038;51.122;6.840;2023-06-22T03:02:17;63325.50;;;-144.63;100.00
6020;BME280;3038;51.122;6.840;2023-06-22T03:04:42;63325.50;;;-144.63;100.00
6020;BME280;3038;51.122;6.840;2023-06-22T03:07:08;63325.50;;;-144.63;100.00
6020;BME280;3038;51.122;6.840;2023-06-22T03:09:33;63325.50;;;-144.63;100.00
6020;BME280;3038;51.122;6.840;2023-06-22T03:11:59;63325.50;;;-144.63;100.00
6020;BME280;3038;51.122;6.840;2023-06-22T03:14:24;63325.50;;;-144.63;100.00
6020;BME280;3038;51.122;6.840;2023-06-22T03:16:50;63325.50;;;-144.63;100.00
6020;BME280;3038;51.122;6.840;2023-06-22T03:19:15;63325.50;;;-144.63;100.00
6020;BME280;3038;51.122;6.840;2023-06-22T03:21:40;63325.50;;;-144.63;100.00
6020;BME280;3038;51.122;6.840;2023-06-22T03:24:07;63325.50;;;-144.63;100.00
6020;BME280;3038;51.122;6.840;2023-06-22T03:26:32;63325.50;;;-144.63;100.00
6020;BME280;3038;51.122;6.840;2023-06-22T03:28:58;63325.50;;;-144.63;100.00
6020;BME280;3038;51.122;6.840;2023-06-22T03:31:23;63325.50;;;-144.63;100.00
6020;BME280;3038;51.122;6.840;2023-06-22T03:33:49;63325.50;;;-144.63;100.00
6020;BME280;3038;51.122;6.840;2023-06-22T03:36:15;63325.50;;;-144.63;100.00
6020;BME280;3038;51.122;6.840;2023-06-22T03:38:46;63325.50;;;-144.63;100.00
6020;BME280;3038;51.122;6.840;2023-06-22T03:41:11;63325.50;;;-144.63;100.00
6020;BME280;3038;51.122;6.840;2023-06-22T03:43:37;63325.50;;;-144.63;100.00
6020;BME280;3038;51.122;6.840;2023-06-22T03:46:02;63325.50;;;-144.63;100.00
6020;BME280;3038;51.122;6.840;2023-06-22T03:48:27;63325.50;;;-144.63;100.00
6020;BME280;3038;51.122;6.840;2023-06-22T03:50:53;63325.50;;;-144.63;100.00
6020;BME280;3038;51.122;6.840;2023-06-22T03:53:18;63325.50;;;-144.63;100.00
6020;BME280;3038;51.122;6.840;2023-06-22T03:55:51;63325.50;;;-144.63;100.00
6020;BME280;3038;51.122;6.840;2023-06-22T03:58:18;63325.50;;;-144.63;100.00
6020;BME280;3038;51.122;6.840;2023-06-22T04:00:52;63325.50;;;-144.63;100.00
6020;BME280;3038;51.122;6.840;2023-06-22T04:03:18;63325.50;;;-144.63;100.00
6020;BME280;3038;51.122;6.840;2023-06-22T04:05:44;63325.50;;;-144.63;100.00
6020;BME280;3038;51.122;6.840;2023-06-22T04:08:09;63325.50;;;-144.63;100.00
6020;BME280;3038;51.122;6.840;2023-06-22T04:10:35;63325.50;;;-144.63;100.00
6020;BME280;3038;51.122;6.840;2023-06-22T04:13:00;63325.50;;;-144.63;100.00
6020;BME280;3038;51.122;6.840;2023-06-22T04:15:26;63325.50;;;-144.63;100.00
6020;BME280;3038;51.122;6.840;2023-06-22T04:17:51;63325.50;;;-144.63;100.00
6020;BME280;3038;51.122;6.840;2023-06-22T04:20:17;63325.50;;;-144.63;100.00
6020;BME280;3038;51.122;6.840;2023-06-22T04:22:42;63325.50;;;-144.63;100.00
6020;BME280;3038;51.122;6.840;2023-06-22T04:25:08;63325.50;;;-144.63;100.00
6020;BME280;3038;51.122;6.840;2023-06-22T04:27:34;63325.50;;;-144.63;100.00
6020;BME280;3038;51.122;6.840;2023-06-22T04:30:06;63325.50;;;-144.63;100.00
6020;BME280;3038;51.122;6.840;2023-06-22T04:32:32;63325.50;;;-144.63;100.00
6020;BME280;3038;51.122;6.840;2023-06-22T04:34:57;63325.50;;;-144.63;100.00
6020;BME280;3038;51.122;6.840;2023-06-22T04:37:23;63325.50;;;-144.63;100.00
6020;BME280;3038;51.122;6.840;2023-06-22T04:39:49;63325.50;;;-144.63;100.00
6020;BME280;3038;51.122;6.840;2023-06-22T04:42:15;63325.50;;;-144.63;100.00
6020;BME280;3038;51.122;6.840;2023-06-22T04:44:40;63325.50;;;-144.63;100.00
6020;BME280;3038;51.122;6.840;2023-06-22T04:47:07;63325.50;;;-144.63;100.00
6020;BME280;3038;51.122;6.840;2023-06-22T04:49:36;63325.50;;;-144.63;100.00
6020;BME280;3038;51.122;6.840;2023-06-22T04:52:07;63325.50;;;-144.63;100.00
6020;BME280;3038;51.122;6.840;2023-06-22T04:54:34;63325.50;;;-144.63;100.00
6020;BME280;3038;51.122;6.840;2023-06-22T04:57:04;63325.50;;;-144.63;100.00
6020;BME280;3038;51.122;6.840;2023-06-22T04:59:32;63325.50;;;-144.63;100.00
6020;BME280;3038;51.122;6.840;2023-06-22T05:02:00;63325.50;;;-144.63;100.00
6020;BME280;3038;51.122;6.840;2023-06-22T05:04:27;63325.50;;;-144.63;100.00
6020;BME280;3038;51.122;6.840;2023-06-22T05:06:57;63325.50;;;-144.63;100.00
6020;BME280;3038;51.122;6.840;2023-06-22T05:09:23;63325.50;;;-144.63;100.00
6020;BME280;3038;51.122;6.840;2023-06-22T05:11:50;63325.50;;;-144.63;100.00
6020;BME280;3038;51.122;6.840;2023-06-22T05:14:17;63325.50;;;-144.63;100.00
6020;BME280;3038;51.122;6.840;2023-06-22T05:16:43;63325.50;;;-144.63;100.00
6020;BME280;3038;51.122;6.840;2023-06-22T05:19:09;63325.50;;;-144.63;100.00
6020;BME280;3038;51.122;6.840;2023-06-22T05:21:35;63325.50;;;-144.63;100.00
6020;BME280;3038;51.122;6.840;2023-06-22T05:24:00;63325.50;;;-144.63;100.00
6020;BME280;3038;51.122;6.840;2023-06-22T05:26:28;63325.50;;;-144.63;100.00
6020;BME280;3038;51.122;6.840;2023-06-22T05:28:54;63325.50;;;-144.63;100.00
6020;BME280;3038;51.122;6.840;2023-06-22T05:31:20;63325.50;;;-144.63;100.00
6020;BME280;3038;51.122;6.840;2023-06-22T05:33:46;63325.50;;;-144.63;100.00
6020;BME280;3038;51.122;6.840;2023-06-22T05:36:12;63325.50;;;-144.63;100.00
6020;BME280;3038;51.122;6.840;2023-06-22T05:38:38;63325.50;;;-144.63;100.00
6020;BME280;3038;51.122;6.840;2023-06-22T05:41:04;63325.50;;;-144.63;100.00
6020;BME280;3038;51.122;6.840;2023-06-22T05:43:29;63325.50;;;-144.63;100.00
6020;BME280;3038;51.122;6.840;2023-06-22T05:45:55;63325.50;;;-144.63;100.00
6020;BME280;3038;51.122;6.840;2023-06-22T05:48:20;63325.50;;;-144.63;100.00
6020;BME280;3038;51.122;6.840;2023-06-22T05:50:45;63325.50;;;-144.63;100.00
6020;BME280;3038;51.122;6.840;2023-06-22T05:53:11;63325.50;;;-144.63;100.00
6020;BME280;3038;51.122;6.840;2023-06-22T05:55:36;63325.50;;;-144.63;100.00
6020;BME280;3038;51.122;6.840;2023-06-22T05:58:02;63325.50;;;-144.63;100.00
6020;BME280;3038;51.122;6.840;2023-06-22T06:00:29;63325.50;;;-144.63;100.00
6020;BME280;3038;51.122;6.840;2023-06-22T06:02:54;63325.50;;;-144.63;100.00
6020;BME280;3038;51.122;6.840;2023-06-22T06:05:19;63325.50;;;-144.63;100.00
6020;BME280;3038;51.122;6.840;2023-06-22T06:07:46;63325.50;;;-144.63;100.00
6020;BME280;3038;51.122;6.840;2023-06-22T06:10:11;63325.50;;;-144.63;100.00
6020;BME280;3038;51.122;6.840;2023-06-22T06:12:37;63325.50;;;-144.63;100.00
6020;BME280;3038;51.122;6.840;2023-06-22T06:15:03;63325.50;;;-144.63;100.00
6020;BME280;3038;51.122;6.840;2023-06-22T06:17:29;63325.50;;;-144.63;100.00
6020;BME280;3038;51.122;6.840;2023-06-22T06:19:54;63325.50;;;-144.63;100.00
6020;BME280;3038;51.122;6.840;2023-06-22T06:22:19;63325.50;;;-144.63;100.00
6020;BME280;3038;51.122;6.840;2023-06-22T06:24:47;63325.50;;;-144.63;100.00
6020;BME280;3038;51.122;6.840;2023-06-22T06:27:13;63325.50;;;-144.63;100.00
6020;BME280;3038;51.122;6.840;2023-06-22T06:29:38;63325.50;;;-144.63;100.00
6020;BME280;3038;51.122;6.840;2023-06-22T06:32:04;63325.50;;;-144.63;100.00
6020;BME280;3038;51.122;6.840;2023-06-22T06:34:29;63325.50;;;-144.63;100.00
6020;BME280;3038;51.122;6.840;2023-06-22T06:36:55;63325.50;;;-144.63;100.00
6020;BME280;3038;51.122;6.840;2023-06-22T06:39:20;63325.50;;;-144.63;100.00
6020;BME280;3038;51.122;6.840;2023-06-22T06:41:45;63325.50;;;-144.63;100.00
6020;BME280;3038;51.122;6.840;2023-06-22T06:44:12;63325.50;;;-144.63;100.00
6020;BME280;3038;51.122;6.840;2023-06-22T06:46:37;63325.50;;;-144.63;100.00
6020;BME280;3038;51.122;6.840;2023-06-22T06:49:03;63325.50;;;-144.63;100.00
6020;BME280;3038;51.122;6.840;2023-06-22T06:51:31;63325.50;;;-144.63;100.00
6020;BME280;3038;51.122;6.840;2023-06-22T06:54:01;63325.50;;;-144.63;100.00
6020;BME280;3038;51.122;6.840;2023-06-22T09:18:16;101153.06;;;26.87;65.69
6020;BME280;3038;51.122;6.840;2023-06-22T09:20:42;101145.66;;;27.09;65.19
6020;BME280;3038;51.122;6.840;2023-06-22T09:23:08;101148.19;;;27.21;64.30
6020;BME280;3038;51.122;6.840;2023-06-22T09:25:33;101145.91;;;27.40;63.10
6020;BME280;3038;51.122;6.840;2023-06-22T09:27:58;101122.44;;;27.39;63.49
6020;BME280;3038;51.122;6.840;2023-06-22T09:30:24;101118.63;;;27.40;63.76
6020;BME280;3038;51.122;6.840;2023-06-22T09:32:49;101116.59;;;27.62;62.90
6020;BME280;3038;51.122;6.840;2023-06-22T09:35:14;101111.88;;;27.90;63.57
6020;BME280;3038;51.122;6.840;2023-06-22T09:37:40;101096.63;;;28.04;62.90
6020;BME280;3038;51.122;6.840;2023-06-22T09:40:06;101095.56;;;28.10;61.48
6020;BME280;3038;51.122;6.840;2023-06-22T09:42:36;101098.84;;;28.17;60.21
6020;BME280;3038;51.122;6.840;2023-06-22T09:45:02;101085.78;;;28.25;60.65
6020;BME280;3038;51.122;6.840;2023-06-22T09:47:29;101091.25;;;28.20;58.34
6020;BME280;3038;51.122;6.840;2023-06-22T09:49:54;101082.75;;;28.11;58.19
6020;BME280;3038;51.122;6.840;2023-06-22T09:52:21;101084.88;;;28.04;58.87
6020;BME280;3038;51.122;6.840;2023-06-22T09:54:46;101084.69;;;28.21;58.95
6020;BME280;3038;51.122;6.840;2023-06-22T09:57:12;101080.41;;;28.45;58.55
6020;BME280;3038;51.122;6.840;2023-06-22T09:59:37;101079.59;;;28.50;57.63
6020;BME280;3038;51.122;6.840;2023-06-22T10:02:05;101085.28;;;28.38;56.91
6020;BME280;3038;51.122;6.840;2023-06-22T10:04:31;101083.63;;;28.32;57.99
6020;BME280;3038;51.122;6.840;2023-06-22T10:06:56;101082.03;;;28.36;58.01
6020;BME280;3038;51.122;6.840;2023-06-22T10:09:22;101083.94;;;28.40;57.18
6020;BME280;3038;51.122;6.840;2023-06-22T10:11:47;101088.53;;;28.30;58.05
6020;BME280;3038;51.122;6.840;2023-06-22T10:14:12;101086.81;;;28.08;57.46
6020;BME280;3038;51.122;6.840;2023-06-22T10:16:38;101088.63;;;27.82;58.94
6020;BME280;3038;51.122;6.840;2023-06-22T10:19:03;101096.34;;;27.53;59.37
6020;BME280;3038;51.122;6.840;2023-06-22T10:21:28;101100.91;;;27.37;59.92
6020;BME280;3038;51.122;6.840;2023-06-22T10:23:54;101105.41;;;27.22;59.73
6020;BME280;3038;51.122;6.840;2023-06-22T10:26:20;101122.38;;;27.02;60.23
6020;BME280;3038;51.122;6.840;2023-06-22T10:28:46;101132.34;;;26.86;60.67
6020;BME280;3038;51.122;6.840;2023-06-22T10:31:11;101139.38;;;26.82;60.94
6020;BME280;3038;51.122;6.840;2023-06-22T10:33:37;101148.63;;;26.81;61.13
6020;BME280;3038;51.122;6.840;2023-06-22T10:36:02;101149.41;;;26.76;61.09
6020;BME280;3038;51.122;6.840;2023-06-22T10:38:27;101158.25;;;26.61;62.79
6020;BME280;3038;51.122;6.840;2023-06-22T10:40:53;101156.47;;;26.28;63.41
6020;BME280;3038;51.122;6.840;2023-06-22T10:43:18;101173.03;;;25.83;65.86
6020;BME280;3038;51.122;6.840;2023-06-22T10:45:43;101186.78;;;25.26;69.34
6020;BME280;3038;51.122;6.840;2023-06-22T10:48:09;101193.47;;;24.49;74.80
6020;BME280;3038;51.122;6.840;2023-06-22T10:50:34;101201.31;;;23.87;77.73
6020;BME280;3038;51.122;6.840;2023-06-22T10:53:00;101202.91;;;23.53;80.79
6020;BME280;3038;51.122;6.840;2023-06-22T10:55:25;101209.25;;;23.35;82.33
6020;BME280;3038;51.122;6.840;2023-06-22T10:57:50;101204.50;;;23.19;83.17
6020;BME280;3038;51.122;6.840;2023-06-22T11:00:17;101210.34;;;23.04;84.85
6020;BME280;3038;51.122;6.840;2023-06-22T11:02:43;101207.00;;;22.90;86.33
6020;BME280;3038;51.122;6.840;2023-06-22T11:05:09;101204.13;;;22.85;88.09
6020;BME280;3038;51.122;6.840;2023-06-22T11:07:34;101200.00;;;22.82;87.28
6020;BME280;3038;51.122;6.840;2023-06-22T11:09:59;101195.28;;;22.78;87.09
6020;BME280;3038;51.122;6.840;2023-06-22T11:12:25;101190.28;;;22.63;86.86
6020;BME280;3038;51.122;6.840;2023-06-22T11:14:50;101186.22;;;22.54;88.01
6020;BME280;3038;51.122;6.840;2023-06-22T11:17:17;101192.31;;;22.49;88.13
6020;BME280;3038;51.122;6.840;2023-06-22T11:19:44;101177.13;;;22.48;90.65
6020;BME280;3038;51.122;6.840;2023-06-22T11:22:09;101167.03;;;22.55;92.80
6020;BME280;3038;51.122;6.840;2023-06-22T11:24:35;101168.25;;;22.60;93.29
6020;BME280;3038;51.122;6.840;2023-06-22T11:27:00;101168.38;;;22.65;92.71
6020;BME280;3038;51.122;6.840;2023-06-22T11:29:26;101153.91;;;22.71;93.59
6020;BME280;3038;51.122;6.840;2023-06-22T11:31:51;101133.91;;;22.72;95.10
6020;BME280;3038;51.122;6.840;2023-06-22T11:34:16;101134.66;;;22.79;95.71
6020;BME280;3038;51.122;6.840;2023-06-22T11:36:42;101122.53;;;22.81;95.48
6020;BME280;3038;51.122;6.840;2023-06-22T11:39:09;101122.88;;;22.85;95.74
6020;BME280;3038;51.122;6.840;2023-06-22T11:41:35;101106.13;;;22.95;96.24
6020;BME280;3038;51.122;6.840;2023-06-22T11:44:00;101087.53;;;22.98;95.39
6020;BME280;3038;51.122;6.840;2023-06-22T11:46:25;101083.41;;;23.07;95.31
6020;BME280;3038;51.122;6.840;2023-06-22T11:53:54;101025.78;;;23.59;94.30
6020;BME280;3038;51.122;6.840;2023-06-22T11:56:19;101004.06;;;23.82;93.90
6020;BME280;3038;51.122;6.840;2023-06-22T11:58:45;100991.91;;;23.85;92.85
6020;BME280;3038;51.122;6.840;2023-06-22T12:01:10;100988.41;;;23.73;92.83
6020;BME280;3038;51.122;6.840;2023-06-22T12:03:35;100988.53;;;23.54;92.27
6020;BME280;3038;51.122;6.840;2023-06-22T12:06:01;100987.75;;;23.42;93.05
6020;BME280;3038;51.122;6.840;2023-06-22T12:08:26;100985.19;;;23.36;94.39
6020;BME280;3038;51.122;6.840;2023-06-22T12:10:51;101005.22;;;23.23;94.09
6020;BME280;3038;51.122;6.840;2023-06-22T12:13:19;101000.38;;;23.13;93.18
6020;BME280;3038;51.122;6.840;2023-06-22T12:15:44;101001.22;;;23.14;93.17
6020;BME280;3038;51.122;6.840;2023-06-22T12:18:09;101005.34;;;23.16;93.46
6020;BME280;3038;51.122;6.840;2023-06-22T12:20:35;101013.44;;;23.51;91.01
6020;BME280;3038;51.122;6.840;2023-06-22T12:23:02;101018.53;;;23.88;89.79
6020;BME280;3038;51.122;6.840;2023-06-22T12:25:28;101021.13;;;24.23;90.33
6020;BME280;3038;51.122;6.840;2023-06-22T12:27:53;101013.66;;;24.42;88.79
6020;BME280;3038;51.122;6.840;2023-06-22T12:30:19;101013.56;;;24.71;88.37
6020;BME280;3038;51.122;6.840;2023-06-22T12:32:44;101007.06;;;25.05;88.52
6020;BME280;3038;51.122;6.840;2023-06-22T12:35:09;101003.25;;;25.40;88.55
6020;BME280;3038;51.122;6.840;2023-06-22T12:37:40;100993.50;;;25.66;87.22
6020;BME280;3038;51.122;6.840;2023-06-22T12:40:06;100995.91;;;25.62;85.84
6020;BME280;3038;51.122;6.840;2023-06-22T12:42:32;100995.66;;;25.64;84.66
6020;BME280;3038;51.122;6.840;2023-06-22T12:44:57;100989.09;;;25.82;83.64
6020;BME280;3038;51.122;6.840;2023-06-22T12:47:23;100975.44;;;26.95;82.24
6020;BME280;3038;51.122;6.840;2023-06-22T12:49:48;100973.44;;;27.18;80.23
6020;BME280;3038;51.122;6.840;2023-06-22T12:52:13;100976.72;;;26.82;79.37
6020;BME280;3038;51.122;6.840;2023-06-22T12:54:39;100970.47;;;26.23;81.12
6020;BME280;3038;51.122;6.840;2023-06-22T12:57:04;100970.09;;;25.65;81.36
6020;BME280;3038;51.122;6.840;2023-06-22T12:59:30;100968.97;;;25.39;81.98
6020;BME280;3038;51.122;6.840;2023-06-22T13:01:55;100968.75;;;25.24;81.97
6020;BME280;3038;51.122;6.840;2023-06-22T13:04:21;100963.25;;;25.19;81.91
6020;BME280;3038;51.122;6.840;2023-06-22T13:06:47;100950.19;;;25.16;83.04
6020;BME280;3038;51.122;6.840;2023-06-22T13:09:14;100951.19;;;25.31;82.98
6020;BME280;3038;51.122;6.840;2023-06-22T13:11:40;100944.91;;;25.75;82.38
6020;BME280;3038;51.122;6.840;2023-06-22T13:14:05;100941.44;;;26.33;80.48
6020;BME280;3038;51.122;6.840;2023-06-22T13:16:30;100946.38;;;26.36;78.50
6020;BME280;3038;51.122;6.840;2023-06-22T13:18:56;100933.47;;;26.22;79.10
6020;BME280;3038;51.122;6.840;2023-06-22T13:21:21;100930.69;;;26.17;78.25
6020;BME280;3038;51.122;6.840;2023-06-22T13:23:46;100929.09;;;26.21;78.24
6020;BME280;3038;51.122;6.840;2023-06-22T13:26:12;100927.47;;;26.25;79.06
6020;BME280;3038;51.122;6.840;2023-06-22T13:28:37;100918.69;;;26.12;77.85
6020;BME280;3038;51.122;6.840;2023-06-22T13:31:03;100916.09;;;26.01;78.81
6020;BME280;3038;51.122;6.840;2023-06-22T13:33:28;100923.50;;;26.05;79.11
6020;BME280;3038;51.122;6.840;2023-06-22T13:35:53;100904.50;;;26.10;78.67
6020;BME280;3038;51.122;6.840;2023-06-22T13:38:19;100907.13;;;26.00;79.60
6020;BME280;3038;51.122;6.840;2023-06-22T13:40:44;100905.94;;;25.91;78.31
6020;BME280;3038;51.122;6.840;2023-06-22T13:43:10;100899.28;;;25.77;79.00
6020;BME280;3038;51.122;6.840;2023-06-22T13:45:35;100889.28;;;25.60;79.33
6020;BME280;3038;51.122;6.840;2023-06-22T13:48:00;100886.47;;;25.50;79.86
6020;BME280;3038;51.122;6.840;2023-06-22T13:50:26;100879.44;;;25.54;80.16
6020;BME280;3038;51.122;6.840;2023-06-22T13:52:51;100869.16;;;25.61;79.80
6020;BME280;3038;51.122;6.840;2023-06-22T13:55:16;100869.03;;;26.00;78.32
6020;BME280;3038;51.122;6.840;2023-06-22T13:57:42;100856.25;;;26.70;76.16
6020;BME280;3038;51.122;6.840;2023-06-22T14:00:08;100849.59;;;27.76;72.67
6020;BME280;3038;51.122;6.840;2023-06-22T14:02:34;100848.75;;;28.16;71.00
6020;BME280;3038;51.122;6.840;2023-06-22T14:05:00;100850.13;;;27.93;69.92
6020;BME280;3038;51.122;6.840;2023-06-22T14:07:25;100844.31;;;27.54;71.83
6020;BME280;3038;51.122;6.840;2023-06-22T14:09:50;100810.50;;;27.65;70.91
6020;BME280;3038;51.122;6.840;2023-06-22T14:12:16;100797.69;;;27.61;70.02
6020;BME280;3038;51.122;6.840;2023-06-22T14:14:43;100798.44;;;27.31;71.03
6020;BME280;3038;51.122;6.840;2023-06-22T14:17:08;100804.88;;;26.94;71.91
6020;BME280;3038;51.122;6.840;2023-06-22T14:19:34;100806.16;;;26.39;73.23
6020;BME280;3038;51.122;6.840;2023-06-22T14:21:59;100809.81;;;25.80;74.50
6020;BME280;3038;51.122;6.840;2023-06-22T14:24:25;100814.13;;;25.49;75.95
6020;BME280;3038;51.122;6.840;2023-06-22T14:26:50;100796.00;;;25.33;76.13
6020;BME280;3038;51.122;6.840;2023-06-22T14:29:15;100786.13;;;25.22;76.27
6020;BME280;3038;51.122;6.840;2023-06-22T14:31:44;100789.50;;;25.34;77.14
6020;BME280;3038;51.122;6.840;2023-06-22T14:34:10;100780.47;;;25.55;76.49
6020;BME280;3038;51.122;6.840;2023-06-22T14:36:35;100779.47;;;25.67;76.56
6020;BME280;3038;51.122;6.840;2023-06-22T14:39:01;100747.16;;;25.70;75.45
6020;BME280;3038;51.122;6.840;2023-06-22T14:41:26;100748.16;;;25.91;74.61
6020;BME280;3038;51.122;6.840;2023-06-22T14:43:51;100754.34;;;25.81;74.74
6020;BME280;3038;51.122;6.840;2023-06-22T14:46:18;100761.97;;;25.57;74.49
6020;BME280;3038;51.122;6.840;2023-06-22T14:48:44;100747.72;;;25.40;75.08
6020;BME280;3038;51.122;6.840;2023-06-22T14:51:11;100738.31;;;25.26;75.19
6020;BME280;3038;51.122;6.840;2023-06-22T14:53:36;100731.03;;;25.31;75.47
6020;BME280;3038;51.122;6.840;2023-06-22T14:56:02;100710.19;;;25.42;74.69
6020;BME280;3038;51.122;6.840;2023-06-22T14:58:30;100703.22;;;25.51;74.39
6020;BME280;3038;51.122;6.840;2023-06-22T15:00:58;100690.81;;;25.66;73.91
6020;BME280;3038;51.122;6.840;2023-06-22T15:03:24;100672.34;;;25.68;73.06
6020;BME280;3038;51.122;6.840;2023-06-22T15:05:52;100677.78;;;25.68;73.15
6020;BME280;3038;51.122;6.840;2023-06-22T15:08:18;100685.41;;;25.71;73.21
6020;BME280;3038;51.122;6.840;2023-06-22T15:10:44;100684.31;;;25.72;74.29
6020;BME280;3038;51.122;6.840;2023-06-22T15:13:09;100679.84;;;25.50;74.20
6020;BME280;3038;51.122;6.840;2023-06-22T15:15:34;100663.38;;;25.30;74.39
6020;BME280;3038;51.122;6.840;2023-06-22T15:18:00;100667.63;;;25.21;74.86
6020;BME280;3038;51.122;6.840;2023-06-22T15:20:26;100659.63;;;25.09;76.04
6020;BME280;3038;51.122;6.840;2023-06-22T15:22:51;100647.81;;;24.98;75.67
6020;BME280;3038;51.122;6.840;2023-06-22T15:25:16;100650.44;;;24.88;75.75
6020;BME280;3038;51.122;6.840;2023-06-22T15:27:42;100665.75;;;24.72;76.43